Time;durP1;ratioP1;P1;durP2;ratioP2;P2;SDS_P1;SDS_P2;PMS_P1;PMS_P2;Temp;Humidity;BMP_temperature;BMP_pressure;BME280_temperature;BME280_humidity;BME280_pressure;Samples;Min_cycle;Max_cycle;Signal;HPM_P1;HPM_P2
2022/08/03 00:01:51;;;;;;;18.82;15.68;;;;;;;16.05;99.24;99324.04;4068246;86;21044;-81
2022/08/03 00:07:52;;;;;;;19.55;16.25;;;;;;;16.06;98.71;99320.88;4077045;86;21032;-81
2022/08/03 00:13:54;;;;;;;19.27;16.30;;;;;;;15.99;98.82;99313.23;4068272;86;21489;-81
2022/08/03 00:19:55;;;;;;;24.72;17.27;;;;;;;15.85;98.79;99312.69;4065251;86;21655;-81
2022/08/03 00:25:56;;;;;;;26.25;15.30;;;;;;;15.77;98.83;99318.66;4065487;86;21628;-81
2022/08/03 00:31:58;;;;;;;18.37;13.15;;;;;;;15.63;98.84;99316.14;4069023;86;21132;-81
2022/08/03 00:37:59;;;;;;;23.12;17.42;;;;;;;15.62;99.36;99324.25;4088325;87;21056;-81
2022/08/03 00:44:01;;;;;;;19.45;16.60;;;;;;;15.53;99.25;99321.72;4078729;86;21040;-81
2022/08/03 00:50:03;;;;;;;21.17;18.90;;;;;;;15.44;99.42;99322.13;4075291;85;21080;-82
2022/08/03 00:56:04;;;;;;;21.97;18.48;;;;;;;15.43;99.65;99325.28;4084173;86;21024;-80
2022/08/03 01:02:05;;;;;;;34.92;19.12;;;;;;;15.40;99.81;99326.88;4078170;85;21072;-81
2022/08/03 01:08:43;;;;;;;35.65;23.62;;;;;;;15.31;99.83;99331.20;4072850;86;21058;-81
2022/08/03 01:15:11;;;;;;;26.87;20.50;;;;;;;15.20;99.97;99328.48;4079604;85;21032;-80
2022/08/03 01:21:17;;;;;;;23.55;19.65;;;;;;;15.20;100.00;99331.23;4090484;86;21975;-81
2022/08/03 01:27:24;;;;;;;25.05;19.90;;;;;;;15.23;100.00;99322.75;4079603;86;21076;-81
2022/08/03 01:33:36;;;;;;;29.20;19.57;;;;;;;15.05;99.84;99323.39;4073471;86;21087;-81
2022/08/03 01:39:39;;;;;;;22.48;18.75;;;;;;;14.93;100.00;99333.43;4075803;86;20994;-81
2022/08/03 01:45:42;;;;;;;21.87;15.75;;;;;;;14.94;100.00;99333.03;4078617;86;21096;-81
2022/08/03 01:51:46;;;;;;;25.43;16.48;;;;;;;14.90;100.00;99332.27;4079867;86;21019;-81
2022/08/03 01:57:49;;;;;;;26.12;18.15;;;;;;;14.94;100.00;99328.91;4083536;86;21435;-81
2022/08/03 02:03:51;;;;;;;21.73;14.78;;;;;;;14.88;100.00;99324.97;4075956;86;21524;-82
2022/08/03 02:09:54;;;;;;;21.42;15.70;;;;;;;14.73;100.00;99322.05;4081536;86;21476;-81
2022/08/03 02:15:57;;;;;;;29.63;19.45;;;;;;;14.68;100.00;99320.26;4079243;86;21021;-82
2022/08/03 02:21:59;;;;;;;27.27;18.67;;;;;;;14.62;100.00;99312.98;4076288;85;21068;-80
2022/08/03 02:28:09;;;;;;;22.62;15.90;;;;;;;14.60;100.00;99316.72;4079223;86;21075;-81
2022/08/03 02:34:13;;;;;;;19.35;15.48;;;;;;;14.48;100.00;99315.74;4076858;86;21009;-83
2022/08/03 02:40:18;;;;;;;20.17;15.90;;;;;;;14.55;100.00;99301.95;4074891;86;21523;-81
2022/08/03 02:47:32;;;;;;;18.62;15.90;;;;;;;14.54;100.00;99302.34;4078084;86;21039;-81
2022/08/03 02:53:45;;;;;;;19.17;16.42;;;;;;;14.59;100.00;99309.64;4076679;86;21080;-82
2022/08/03 02:59:47;;;;;;;19.98;17.85;;;;;;;14.43;100.00;99310.62;4078083;86;20989;-82
2022/08/03 03:05:50;;;;;;;21.82;15.53;;;;;;;14.56;100.00;99313.77;4079950;86;21098;-81
2022/08/03 03:11:52;;;;;;;17.65;15.75;;;;;;;14.52;100.00;99317.89;4065374;86;21021;-81
2022/08/03 03:17:55;;;;;;;18.92;16.82;;;;;;;14.62;100.00;99321.25;4070440;86;21062;-82
2022/08/03 03:23:58;;;;;;;22.00;17.10;;;;;;;14.44;100.00;99319.06;4067577;86;21065;-81
2022/08/03 03:30:02;;;;;;;22.45;18.00;;;;;;;14.27;100.00;99327.33;4071062;86;20977;-81
2022/08/03 03:36:05;;;;;;;20.15;18.05;;;;;;;14.31;100.00;99326.73;4063366;86;21241;-79
2022/08/03 03:42:07;;;;;;;18.70;16.57;;;;;;;14.13;100.00;99325.29;4070372;86;21040;-82
2022/08/03 03:48:09;;;;;;;19.62;17.52;;;;;;;14.11;100.00;99327.06;4069230;86;21076;-82
2022/08/03 03:54:10;;;;;;;22.37;15.80;;;;;;;14.23;100.00;99328.05;4068431;86;21035;-81
2022/08/03 04:00:16;;;;;;;21.05;17.32;;;;;;;14.30;100.00;99333.44;4074125;86;22115;-82
2022/08/03 04:12:39;;;;;;;17.87;16.07;;;;;;;14.31;100.00;99335.80;4068437;86;21072;-82
2022/08/03 04:18:47;;;;;;;20.97;16.42;;;;;;;14.46;100.00;99340.13;4068387;86;21101;-80
2022/08/03 04:24:53;;;;;;;18.80;16.80;;;;;;;14.48;100.00;99337.78;4067427;86;21079;-82
2022/08/03 04:30:56;;;;;;;19.53;14.70;;;;;;;14.58;100.00;99346.63;4065835;86;21652;-82
2022/08/03 04:37:01;;;;;;;18.45;16.55;;;;;;;14.60;100.00;99351.73;4061310;86;21594;-80
2022/08/03 04:43:06;;;;;;;19.65;17.65;;;;;;;14.73;100.00;99357.06;4067390;86;20993;-82
2022/08/03 04:49:08;;;;;;;18.35;16.37;;;;;;;14.87;100.00;99364.75;4062739;86;21031;-80
2022/08/03 04:55:10;;;;;;;22.37;16.90;;;;;;;14.95;100.00;99369.67;4067817;86;21589;-82
2022/08/03 05:01:11;;;;;;;21.25;18.20;;;;;;;15.12;100.00;99372.41;4071209;86;21047;-81
2022/08/03 05:07:14;;;;;;;21.57;19.27;;;;;;;15.25;100.00;99381.83;4075969;86;20999;-81
2022/08/03 05:13:15;;;;;;;20.52;18.40;;;;;;;15.40;100.00;99379.88;4070765;86;21116;-81
2022/08/03 05:19:16;;;;;;;19.98;17.80;;;;;;;15.60;100.00;99381.80;4069318;86;21003;-80
2022/08/03 05:25:18;;;;;;;23.55;19.55;;;;;;;15.78;100.00;99380.95;4065120;86;21152;-81
2022/08/03 05:31:22;;;;;;;21.02;18.87;;;;;;;15.95;100.00;99386.99;4061881;86;21102;-81
2022/08/03 05:37:23;;;;;;;21.23;18.95;;;;;;;16.12;100.00;99395.20;4064755;86;21079;-82
2022/08/03 05:43:25;;;;;;;23.50;21.02;;;;;;;16.28;100.00;99394.72;4067959;86;21093;-85
2022/08/03 05:49:27;;;;;;;24.23;21.55;;;;;;;16.44;100.00;99391.72;4076236;86;21072;-81
2022/08/03 05:55:28;;;;;;;26.77;23.92;;;;;;;16.60;100.00;99391.22;4069200;86;21084;-81
2022/08/03 06:01:31;;;;;;;28.42;23.73;;;;;;;16.70;100.00;99390.34;4067032;86;21125;-82
2022/08/03 06:07:33;;;;;;;27.93;24.07;;;;;;;16.79;100.00;99383.16;4067569;86;21609;-82
2022/08/03 06:13:35;;;;;;;28.67;25.25;;;;;;;16.97;100.00;99394.09;4071265;86;21103;-83
2022/08/03 06:19:36;;;;;;;33.10;27.95;;;;;;;17.20;100.00;99394.27;4068666;86;21581;-82
2022/08/03 06:25:37;;;;;;;30.35;25.17;;;;;;;17.51;100.00;99384.90;4069916;86;21068;-83
2022/08/03 06:31:39;;;;;;;31.07;26.17;;;;;;;17.80;100.00;99400.02;4065555;86;21080;-83
2022/08/03 06:37:49;;;;;;;26.60;22.70;;;;;;;18.14;100.00;99397.21;4053111;86;21619;-83
2022/08/03 06:43:50;;;;;;;26.07;23.20;;;;;;;18.52;100.00;99400.09;4063592;86;21658;-83
2022/08/03 06:49:54;;;;;;;25.85;20.27;;;;;;;18.86;100.00;99405.52;4059020;86;21076;-83
2022/08/03 06:55:56;;;;;;;20.30;15.60;;;;;;;19.21;100.00;99399.39;4057945;86;21087;-83
2022/08/03 07:01:57;;;;;;;16.23;14.53;;;;;;;19.60;100.00;99393.95;4060923;86;21084;-83
2022/08/03 07:08:00;;;;;;;15.10;13.30;;;;;;;20.09;100.00;99395.77;4062796;86;21012;-83
2022/08/03 07:14:03;;;;;;;15.78;14.13;;;;;;;20.39;100.00;99395.52;4055532;86;21146;-83
2022/08/03 07:20:07;;;;;;;14.13;12.63;;;;;;;20.58;100.00;99396.70;4073396;86;21078;-83
2022/08/03 07:26:08;;;;;;;14.78;12.60;;;;;;;20.75;100.00;99399.69;4035588;86;21042;-83
2022/08/03 07:32:10;;;;;;;18.40;13.88;;;;;;;21.02;100.00;99403.02;4052045;86;21622;-83
2022/08/03 07:38:11;;;;;;;14.83;11.75;;;;;;;21.44;100.00;99400.55;4001385;86;21070;-85
2022/08/03 07:44:13;;;;;;;15.72;12.25;;;;;;;21.83;100.00;99400.33;3992614;87;21420;-83
2022/08/03 07:50:14;;;;;;;15.35;12.50;;;;;;;22.40;100.00;99402.23;3991172;87;21078;-83
2022/08/03 07:56:21;;;;;;;13.40;12.03;;;;;;;23.05;99.29;99396.42;3989274;87;21040;-83
2022/08/03 08:02:23;;;;;;;12.55;11.33;;;;;;;23.64;98.20;99390.81;3995486;87;21063;-84
2022/08/03 08:08:24;;;;;;;14.20;12.23;;;;;;;24.19;96.75;99394.20;3991489;87;21087;-84
2022/08/03 08:14:26;;;;;;;11.70;10.60;;;;;;;24.68;94.14;99386.55;3999337;87;21614;-84
2022/08/03 08:20:31;;;;;;;11.57;10.48;;;;;;;24.83;93.21;99388.94;3996143;87;21951;-84
2022/08/03 08:26:33;;;;;;;13.83;12.47;;;;;;;24.79;92.13;99391.11;3996073;87;21016;-84
2022/08/03 08:32:36;;;;;;;11.75;10.72;;;;;;;24.76;90.88;99393.44;3991216;87;21687;-84
2022/08/03 08:38:40;;;;;;;15.05;11.88;;;;;;;24.31;89.22;99397.53;4070591;86;21639;-84
2022/08/03 08:44:41;;;;;;;12.40;11.03;;;;;;;24.25;88.95;99393.77;4068524;86;21568;-83
2022/08/03 08:50:43;;;;;;;13.62;12.10;;;;;;;24.26;88.00;99392.53;4065351;86;21109;-83
2022/08/03 08:56:45;;;;;;;14.00;12.70;;;;;;;24.26;88.00;99392.53;4072796;86;21140;-83
2022/08/03 09:02:47;;;;;;;13.18;11.85;;;;;;;24.26;87.17;99393.92;4068591;86;21108;-81
2022/08/03 09:08:49;;;;;;;14.10;12.70;;;;;;;24.33;87.01;99388.69;4068636;86;21386;-84
2022/08/03 09:14:50;;;;;;;13.05;11.75;;;;;;;24.52;85.41;99391.11;4064511;86;21028;-84
2022/08/03 09:20:57;;;;;;;14.40;12.03;;;;;;;24.74;84.35;99388.30;4075041;86;21625;-83
2022/08/03 09:26:58;;;;;;;12.63;10.28;;;;;;;25.12;83.26;99379.55;4051758;86;21093;-84
2022/08/03 09:33:04;;;;;;;8.53;7.67;;;;;;;25.56;81.72;99381.64;4073129;86;20977;-83
2022/08/03 09:39:15;;;;;;;9.50;8.60;;;;;;;26.14;79.97;99377.27;4069293;86;21052;-83
2022/08/03 09:45:26;;;;;;;7.60;6.90;;;;;;;26.91;78.60;99384.84;4078919;86;20988;-84
2022/08/03 09:51:27;;;;;;;5.87;5.37;;;;;;;27.30;76.25;99375.89;4066580;86;22148;-86
2022/08/03 09:57:29;;;;;;;7.60;6.90;;;;;;;27.80;74.04;99374.88;4073686;86;20997;-84
2022/08/03 10:03:34;;;;;;;7.22;6.62;;;;;;;28.31;72.01;99367.53;4073116;86;21079;-83
2022/08/03 10:09:37;;;;;;;6.08;5.58;;;;;;;28.92;70.82;99368.69;4064497;86;21010;-85
2022/08/03 10:15:39;;;;;;;10.50;6.67;;;;;;;29.37;68.71;99367.27;4075045;86;21452;-84
2022/08/03 10:21:52;;;;;;;7.95;5.97;;;;;;;29.41;67.26;99360.02;4068520;86;21029;-84
2022/08/03 10:27:56;;;;;;;6.45;5.85;;;;;;;29.29;64.81;99359.09;4067794;86;21033;-84
2022/08/03 10:33:58;;;;;;;5.50;4.75;;;;;;;29.04;61.59;99354.89;4078674;86;21167;-84
2022/08/03 10:40:01;;;;;;;5.37;3.85;;;;;;;29.49;58.08;99342.81;4060263;86;21090;-84
2022/08/03 10:46:04;;;;;;;4.62;3.55;;;;;;;29.75;57.54;99345.84;4062351;86;21073;-83
2022/08/03 10:52:06;;;;;;;4.25;3.75;;;;;;;29.94;54.30;99339.23;4039645;86;21041;-85
2022/08/03 10:58:07;;;;;;;4.00;3.55;;;;;;;30.02;55.79;99334.05;4067671;86;21031;-85
2022/08/03 11:04:16;;;;;;;4.10;3.70;;;;;;;30.37;54.18;99331.05;4058640;86;21064;-84
2022/08/03 11:10:31;;;;;;;3.85;3.55;;;;;;;30.75;53.93;99333.41;4057407;86;21041;-84
2022/08/03 11:16:45;;;;;;;4.50;3.30;;;;;;;31.02;50.41;99337.71;4084116;85;20973;-84
2022/08/03 11:22:50;;;;;;;4.80;3.25;;;;;;;31.56;50.83;99328.73;4061577;86;21484;-85
2022/08/03 11:28:51;;;;;;;3.60;3.30;;;;;;;31.72;49.32;99320.94;4065017;86;21057;-84
2022/08/03 11:35:19;;;;;;;3.52;3.22;;;;;;;31.65;46.59;99315.00;4064987;86;21730;-85
2022/08/03 11:41:32;;;;;;;3.70;3.40;;;;;;;31.86;46.26;99315.72;4068907;86;20973;-85
2022/08/03 11:47:38;;;;;;;3.58;2.72;;;;;;;31.67;46.30;99307.54;4074940;87;21005;-84
2022/08/03 11:53:40;;;;;;;4.03;3.42;;;;;;;31.18;46.19;99307.34;4069113;86;21488;-84
2022/08/03 11:59:41;;;;;;;3.70;3.40;;;;;;;30.41;44.82;99301.30;4071876;86;21027;-85
2022/08/03 12:05:53;;;;;;;4.17;3.30;;;;;;;29.96;45.22;99290.13;4067688;86;21120;-84
2022/08/03 12:11:54;;;;;;;4.85;3.70;;;;;;;29.75;45.42;99289.41;4066892;86;21103;-84
2022/08/03 12:17:56;;;;;;;4.62;3.70;;;;;;;29.48;44.52;99291.89;4068828;86;21052;-84
2022/08/03 12:24:02;;;;;;;5.45;3.83;;;;;;;29.05;44.37;99290.85;4063798;86;21081;-84
2022/08/03 12:30:04;;;;;;;;;;;;;;;28.88;44.66;99279.97;4065162;86;21150;-84
2022/08/03 12:36:09;;;;;;;3.45;3.15;;;;;;;28.64;45.40;99278.77;4068942;86;20728;-83
2022/08/03 12:42:11;;;;;;;5.55;4.10;;;;;;;28.46;45.57;99265.51;4077007;86;21574;-83
2022/08/03 12:48:12;;;;;;;5.53;4.30;;;;;;;28.39;45.87;99267.34;4067295;86;21024;-84
2022/08/03 12:54:19;;;;;;;4.47;3.83;;;;;;;28.19;44.33;99269.44;4075535;86;21001;-86
2022/08/03 13:00:21;;;;;;;4.67;4.15;;;;;;;28.02;44.02;99264.83;4064719;86;21199;-83
2022/08/03 13:06:24;;;;;;;5.72;4.25;;;;;;;27.79;44.62;99257.22;4070481;86;21133;-83
2022/08/03 13:12:28;;;;;;;4.05;3.65;;;;;;;27.51;44.53;99256.10;4075667;86;21615;-82
2022/08/03 13:18:30;;;;;;;4.97;3.30;;;;;;;27.46;44.59;99247.55;4057999;86;21027;-83
2022/08/03 13:24:32;;;;;;;6.20;4.10;;;;;;;27.51;45.00;99247.67;4067059;86;21012;-82
2022/08/03 13:30:33;;;;;;;4.05;3.65;;;;;;;27.51;45.94;99242.05;4070992;86;21036;-82
2022/08/03 13:36:35;;;;;;;5.92;3.87;;;;;;;27.40;45.40;99242.45;4065612;86;21039;-82
2022/08/03 13:42:36;;;;;;;5.67;3.90;;;;;;;27.35;44.75;99243.12;3965259;88;21050;-86
2022/08/03 13:48:37;;;;;;;4.50;4.10;;;;;;;27.36;44.76;99244.05;3962992;88;21059;-83
2022/08/03 13:54:39;;;;;;;4.65;4.22;;;;;;;27.32;44.31;99242.69;3950510;88;21482;-83
2022/08/03 14:00:40;;;;;;;4.33;3.92;;;;;;;27.24;43.89;99241.47;4054257;86;21520;-82
2022/08/03 14:06:46;;;;;;;4.47;4.08;;;;;;;27.08;43.66;99238.48;4050091;86;21027;-83
2022/08/03 14:12:46;;;;;;;4.87;4.47;;;;;;;27.02;44.36;99241.81;4056558;86;21619;-81
2022/08/03 14:18:47;;;;;;;5.03;4.37;;;;;;;27.03;44.01;99236.97;4050913;86;21122;-86
2022/08/03 14:24:48;;;;;;;4.72;4.30;;;;;;;27.09;45.28;99231.59;4052542;86;21084;-85
2022/08/03 14:30:52;;;;;;;5.10;4.30;;;;;;;26.89;45.66;99232.84;4090760;86;21111;-86
2022/08/03 14:36:53;;;;;;;4.35;4.05;;;;;;;26.69;46.17;99223.47;4038528;86;21171;-86
2022/08/03 14:42:54;;;;;;;4.50;4.10;;;;;;;26.69;46.06;99223.47;4020047;87;21036;-85
2022/08/03 14:48:56;;;;;;;5.00;4.50;;;;;;;26.78;45.82;99223.42;4025669;87;21075;-85
2022/08/03 14:54:59;;;;;;;5.90;4.85;;;;;;;26.79;45.95;99208.91;4035337;86;21691;-87
2022/08/03 15:01:00;;;;;;;5.20;4.70;;;;;;;26.74;46.24;99215.17;4020926;87;21100;-86
2022/08/03 15:07:08;;;;;;;4.92;4.53;;;;;;;26.70;46.42;99213.81;3931281;89;21046;-86
2022/08/03 15:13:10;;;;;;;5.65;3.62;;;;;;;26.69;46.69;99205.22;4014180;86;21498;-86
2022/08/03 15:19:12;;;;;;;4.78;4.37;;;;;;;26.62;47.33;99205.56;4009976;87;20993;-86
2022/08/03 15:25:14;;;;;;;5.00;4.50;;;;;;;26.60;47.67;99194.81;4007036;87;21048;-86
2022/08/03 15:31:24;;;;;;;5.62;4.20;;;;;;;26.43;47.75;99190.08;4008801;86;21620;-86
2022/08/03 15:37:27;;;;;;;5.50;4.30;;;;;;;26.34;47.84;99195.13;4033457;86;21056;-86
2022/08/03 15:43:28;;;;;;;4.78;4.37;;;;;;;26.21;47.62;99191.77;4076691;86;21069;-86
2022/08/03 15:49:32;;;;;;;4.62;4.20;;;;;;;26.18;47.85;99191.31;4080902;86;21509;-86
2022/08/03 15:55:33;;;;;;;4.50;4.10;;;;;;;26.07;48.50;99183.42;4075813;86;22507;-86
2022/08/03 16:01:34;;;;;;;4.92;4.53;;;;;;;25.95;49.03;99183.61;4075669;86;21020;-86
2022/08/03 16:07:42;;;;;;;4.75;4.28;;;;;;;25.87;48.95;99178.19;4078293;86;21651;-86
2022/08/03 16:13:43;;;;;;;6.37;4.53;;;;;;;25.86;49.36;99168.98;4080914;86;21048;-86
2022/08/03 16:19:44;;;;;;;5.80;4.72;;;;;;;25.79;49.60;99165.10;4078767;86;21062;-86
2022/08/03 16:25:55;;;;;;;4.60;4.12;;;;;;;25.70;49.53;99167.95;3962802;86;10000492;-86
2022/08/03 16:31:56;;;;;;;6.37;4.53;;;;;;;25.61;49.59;99155.37;4066531;86;21084;-86
2022/08/03 16:37:57;;;;;;;5.30;4.50;;;;;;;25.56;49.87;99155.25;4069977;86;21107;-86
2022/08/03 16:43:58;;;;;;;5.78;4.40;;;;;;;25.49;50.00;99152.14;4063153;86;21122;-86
2022/08/03 16:50:09;;;;;;;4.62;4.22;;;;;;;25.43;49.92;99150.45;4067100;86;21094;-86
2022/08/03 16:56:11;;;;;;;4.65;4.25;;;;;;;25.38;49.97;99156.68;4069801;86;21032;-85
2022/08/03 17:02:25;;;;;;;5.30;4.67;;;;;;;25.31;50.09;99161.95;4069023;86;21180;-86
2022/08/03 17:08:35;;;;;;;5.20;4.35;;;;;;;25.20;50.43;99164.45;4076144;86;20956;-86
2022/08/03 17:14:38;;;;;;;6.22;4.35;;;;;;;25.13;50.47;99159.80;4073159;86;21701;-86
2022/08/03 17:20:57;;;;;;;5.25;4.12;;;;;;;25.00;50.66;99164.78;4064309;86;21488;-86
2022/08/03 17:27:19;;;;;;;5.10;4.20;;;;;;;24.91;50.76;99170.39;4068527;86;21049;-85
2022/08/03 17:39:53;;;;;;;6.70;5.00;;;;;;;24.65;51.48;99177.66;4081176;85;21024;-85
2022/08/03 17:45:55;;;;;;;5.72;5.12;;;;;;;24.50;52.03;99183.72;4076839;86;21827;-85
2022/08/03 17:52:02;;;;;;;5.70;5.15;;;;;;;24.37;52.72;99190.06;4069177;86;21080;-86
2022/08/03 17:58:12;;;;;;;7.03;5.30;;;;;;;24.22;53.64;99196.70;4071259;86;21959;-85
2022/08/03 18:04:20;;;;;;;6.05;5.55;;;;;;;24.10;54.50;99200.40;4081654;87;21008;-85
2022/08/03 18:10:37;;;;;;;6.72;6.12;;;;;;;23.95;55.27;99202.16;4070907;86;21052;-85
2022/08/03 18:16:46;;;;;;;6.67;5.80;;;;;;;23.73;56.14;99207.80;4073108;86;21067;-85
2022/08/03 18:22:52;;;;;;;8.88;6.83;;;;;;;23.42;57.39;99209.02;3957370;86;10000375;-85
2022/08/03 18:28:54;;;;;;;12.18;6.78;;;;;;;23.16;58.58;99216.73;4070388;86;21125;-85
2022/08/03 18:34:57;;;;;;;9.98;6.62;;;;;;;22.89;59.75;99221.48;4073565;86;21065;-85
2022/08/03 18:41:00;;;;;;;7.17;6.47;;;;;;;22.64;60.62;99238.30;4083170;86;21064;-85
2022/08/03 18:47:16;;;;;;;10.58;7.08;;;;;;;22.38;61.41;99249.27;4073941;86;21100;-85
2022/08/03 18:53:52;;;;;;;9.58;7.60;;;;;;;22.17;62.28;99251.97;4066287;86;21137;-86
2022/08/03 19:00:18;;;;;;;9.50;8.50;;;;;;;22.01;63.01;99257.64;4035048;87;21080;-85
2022/08/03 19:06:47;;;;;;;11.30;8.93;;;;;;;21.81;64.08;99262.05;4075665;86;21040;-85
2022/08/03 19:13:20;;;;;;;15.48;10.98;;;;;;;21.67;64.69;99270.79;4061434;87;21088;-85
2022/08/03 19:19:33;;;;;;;14.18;9.98;;;;;;;21.55;65.21;99271.52;4027260;86;21059;-85
2022/08/03 19:25:40;;;;;;;13.45;10.15;;;;;;;21.40;66.05;99272.55;3972738;90;21085;-85
2022/08/03 19:31:48;;;;;;;11.63;9.30;;;;;;;21.26;66.94;99267.38;4067263;86;20995;-85
2022/08/03 19:37:56;;;;;;;11.45;9.35;;;;;;;21.18;68.51;99277.75;4059744;86;21940;-85
2022/08/03 19:44:11;;;;;;;16.95;11.22;;;;;;;21.14;69.14;99278.46;4069570;86;21092;-84
2022/08/03 19:50:14;;;;;;;15.40;12.37;;;;;;;21.01;69.09;99275.63;4068326;86;21001;-85
2022/08/03 19:56:33;;;;;;;13.43;11.88;;;;;;;20.77;69.76;99283.95;4046497;86;21586;-85
2022/08/03 20:02:34;;;;;;;14.10;10.98;;;;;;;20.67;70.65;99287.77;4063128;86;21073;-85
2022/08/03 20:15:09;;;;;;;15.00;12.63;;;;;;;20.47;72.06;99281.52;4064386;86;21045;-85
2022/08/03 20:21:22;;;;;;;14.47;12.98;;;;;;;20.37;73.22;99279.01;4087496;87;21020;-85
2022/08/03 20:27:57;;;;;;;14.20;12.13;;;;;;;20.16;73.60;99276.11;4071053;86;20996;-85
2022/08/03 20:34:01;;;;;;;14.18;12.18;;;;;;;20.04;74.28;99276.17;4065337;86;21023;-85
2022/08/03 20:40:07;;;;;;;13.93;12.18;;;;;;;19.80;75.18;99266.38;4022541;86;21892;-85
2022/08/03 20:46:21;;;;;;;16.05;12.85;;;;;;;19.69;75.86;99269.19;4067179;86;21039;-85
2022/08/03 20:52:23;;;;;;;20.65;14.47;;;;;;;19.60;76.94;99273.16;4078659;86;21085;-84
2022/08/03 20:58:25;;;;;;;16.52;13.60;;;;;;;19.54;77.37;99277.65;4067010;86;21651;-84
2022/08/03 21:04:26;;;;;;;17.80;13.48;;;;;;;19.42;77.89;99279.06;4068689;86;21584;-85
2022/08/03 21:10:30;;;;;;;15.38;13.58;;;;;;;19.27;78.48;99274.98;4062896;86;20984;-84
2022/08/03 21:16:39;;;;;;;17.45;14.38;;;;;;;19.11;79.13;99279.64;4066576;86;21070;-84
2022/08/03 21:22:50;;;;;;;15.80;14.18;;;;;;;18.97;79.87;99292.39;4073928;86;21579;-84
2022/08/03 21:28:54;;;;;;;20.08;16.27;;;;;;;18.87;80.73;99289.98;4059257;86;21134;-84
2022/08/03 21:34:57;;;;;;;15.55;13.93;;;;;;;18.88;81.19;99292.16;4068999;86;21072;-84
2022/08/03 21:40:59;;;;;;;22.50;15.32;;;;;;;18.74;81.66;99289.80;4061468;86;21603;-84
2022/08/03 21:47:01;;;;;;;19.70;14.90;;;;;;;18.64;82.04;99290.78;4084284;86;21524;-84
2022/08/03 21:53:16;;;;;;;20.20;15.65;;;;;;;18.43;82.61;99300.05;4082163;86;21149;-84
2022/08/03 21:59:30;;;;;;;21.73;18.25;;;;;;;18.31;83.34;99312.46;4068468;86;21117;-83
2022/08/03 22:05:44;;;;;;;20.75;16.82;;;;;;;18.24;83.61;99315.95;4068148;86;21086;-84
2022/08/03 22:11:49;;;;;;;18.48;16.40;;;;;;;18.17;84.43;99303.56;4074008;86;21900;-84
2022/08/03 22:17:54;;;;;;;19.77;17.32;;;;;;;18.13;84.89;99304.23;3907280;89;21751;-84
2022/08/03 22:23:59;;;;;;;27.67;18.92;;;;;;;18.11;85.44;99300.49;4066482;86;21222;-84
2022/08/03 22:30:05;;;;;;;17.95;14.68;;;;;;;18.09;85.72;99296.55;4070168;86;21064;-83
2022/08/03 22:36:09;;;;;;;17.07;14.55;;;;;;;17.92;86.09;99301.15;4068639;86;21035;-84
2022/08/03 22:42:11;;;;;;;20.68;17.52;;;;;;;17.83;86.15;99296.73;4076378;85;21186;-84
2022/08/03 22:48:20;;;;;;;20.32;16.60;;;;;;;17.68;86.83;99300.86;4066454;85;21588;-84
2022/08/03 22:54:42;;;;;;;19.57;15.80;;;;;;;17.59;86.89;99307.50;4069957;86;21104;-83
2022/08/03 23:01:14;;;;;;;20.43;17.85;;;;;;;17.47;87.87;99303.91;3993686;87;21122;-83
2022/08/03 23:07:23;;;;;;;23.25;17.77;;;;;;;17.44;88.19;99307.50;3985712;87;21154;-83
2022/08/03 23:13:29;;;;;;;23.95;19.70;;;;;;;17.32;88.52;99309.98;3976639;87;21245;-84
2022/08/03 23:19:31;;;;;;;;;;;;;;;17.19;88.88;99305.57;3989265;87;22347;-83
2022/08/03 23:25:32;;;;;;;24.95;18.77;;;;;;;17.23;90.94;99301.39;3983767;87;20413;-83
2022/08/03 23:31:43;;;;;;;23.60;18.55;;;;;;;17.16;89.60;99296.09;3983585;87;21977;-84
2022/08/03 23:37:48;;;;;;;23.20;17.30;;;;;;;17.03;89.74;99298.42;3984730;87;21044;-83
2022/08/03 23:43:50;;;;;;;23.47;18.98;;;;;;;16.91;90.30;99285.88;4027856;86;21119;-83
2022/08/03 23:49:52;;;;;;;21.15;17.00;;;;;;;16.89;91.49;99286.91;4048317;86;21044;-83
2022/08/03 23:56:22;;;;;;;21.85;18.23;;;;;;;16.87;91.66;99274.67;4056534;86;21129;-82
